Time;durP1;ratioP1;P1;durP2;ratioP2;P2;SDS_P1;SDS_P2;PMS_P1;PMS_P2;Temp;Humidity;BMP_temperature;BMP_pressure;BME280_temperature;BME280_humidity;BME280_pressure;Samples;Min_cycle;Max_cycle;Signal;HPM_P1;HPM_P2
2021/10/12 00:00:34;;;;;;;5.70;3.70;;;;;;;;;;5025290;28;20454;-78
2021/10/12 00:03:01;;;;;;;6.83;3.63;;;;;;;;;;5019424;28;21002;-77
2021/10/12 00:05:28;;;;;;;7.67;3.70;;;;;;;;;;5020142;28;20463;-78
2021/10/12 00:07:57;;;;;;;7.33;3.27;;;;;;;;;;5020421;28;20454;-78
2021/10/12 00:10:24;;;;;;;8.60;3.33;;;;;;;;;;5035074;28;20477;-78
2021/10/12 00:12:51;;;;;;;10.80;3.10;;;;;;;;;;5034763;28;20497;-81
2021/10/12 00:15:18;;;;;;;7.87;3.50;;;;;;;;;;5024613;28;20556;-83
2021/10/12 00:17:46;;;;;;;8.03;4.00;;;;;;;;;;5026768;28;20923;-79
2021/10/12 00:20:13;;;;;;;5.33;3.27;;;;;;;;;;5032923;28;20465;-80
2021/10/12 00:22:40;;;;;;;9.03;3.50;;;;;;;;;;5031030;28;20971;-81
2021/10/12 00:25:09;;;;;;;14.43;4.20;;;;;;;;;;5032655;28;20450;-82
2021/10/12 00:27:38;;;;;;;4.73;3.50;;;;;;;;;;5031878;28;20935;-78
2021/10/12 00:30:05;;;;;;;5.13;3.13;;;;;;;;;;5023200;28;20458;-78
2021/10/12 00:32:32;;;;;;;6.93;3.77;;;;;;;;;;5034599;28;20848;-77
2021/10/12 00:35:00;;;;;;;6.37;4.00;;;;;;;;;;5038604;28;20430;-77
2021/10/12 00:37:27;;;;;;;10.63;5.27;;;;;;;;;;5031596;28;20458;-80
2021/10/12 00:39:54;;;;;;;6.03;4.13;;;;;;;;;;5032034;28;20812;-80
2021/10/12 00:42:22;;;;;;;5.87;3.83;;;;;;;;;;5029303;28;20474;-80
2021/10/12 00:44:50;;;;;;;11.30;4.50;;;;;;;;;;5032379;28;20446;-78
2021/10/12 00:47:17;;;;;;;8.80;4.27;;;;;;;;;;5013800;28;20470;-78
2021/10/12 00:49:44;;;;;;;10.30;4.67;;;;;;;;;;5036979;28;21279;-78
2021/10/12 00:52:11;;;;;;;4.87;4.00;;;;;;;;;;5041474;28;20432;-77
2021/10/12 00:54:38;;;;;;;7.73;4.87;;;;;;;;;;5029916;28;20461;-79
2021/10/12 00:57:07;;;;;;;7.20;4.40;;;;;;;;;;5029897;28;20452;-77
2021/10/12 00:59:37;;;;;;;4.73;3.70;;;;;;;;;;5032566;28;20480;-79
2021/10/12 01:02:04;;;;;;;6.53;3.90;;;;;;;;;;5019957;28;20622;-78
2021/10/12 01:04:31;;;;;;;8.43;4.00;;;;;;;;;;5032981;28;20454;-79
2021/10/12 01:06:59;;;;;;;6.83;3.70;;;;;;;;;;5037479;28;20811;-81
2021/10/12 01:09:26;;;;;;;6.80;3.53;;;;;;;;;;5028773;28;20462;-78
2021/10/12 01:11:53;;;;;;;7.53;3.93;;;;;;;;;;5031535;28;20454;-80
2021/10/12 01:14:20;;;;;;;6.13;3.40;;;;;;;;;;5031223;28;20490;-78
2021/10/12 01:16:49;;;;;;;4.83;3.33;;;;;;;;;;5021730;28;20461;-81
2021/10/12 01:19:16;;;;;;;6.07;3.37;;;;;;;;;;5028755;28;20457;-80
2021/10/12 01:21:46;;;;;;;4.03;3.63;;;;;;;;;;5036801;28;20431;-83
2021/10/12 01:24:13;;;;;;;5.33;3.87;;;;;;;;;;5025137;28;20854;-80
2021/10/12 01:26:41;;;;;;;5.83;3.60;;;;;;;;;;5027089;28;20543;-79
2021/10/12 01:29:09;;;;;;;7.83;3.87;;;;;;;;;;5031374;28;20442;-80
2021/10/12 01:31:36;;;;;;;7.27;4.10;;;;;;;;;;5023302;28;20572;-81
2021/10/12 01:34:11;;;;;;;5.53;3.83;;;;;;;;;;5033157;28;20986;-81
2021/10/12 01:36:38;;;;;;;5.30;3.63;;;;;;;;;;5037042;28;21890;-78
2021/10/12 01:39:06;;;;;;;7.50;3.80;;;;;;;;;;5024461;28;20817;-84
2021/10/12 01:41:34;;;;;;;5.13;3.73;;;;;;;;;;5031403;28;20445;-80
2021/10/12 01:44:01;;;;;;;6.90;4.57;;;;;;;;;;5029697;28;20703;-83
2021/10/12 01:46:28;;;;;;;6.63;4.40;;;;;;;;;;5020875;28;20461;-76
2021/10/12 01:48:55;;;;;;;7.10;4.40;;;;;;;;;;5023038;28;20450;-76
2021/10/12 01:51:22;;;;;;;6.27;4.43;;;;;;;;;;5031830;28;20462;-81
2021/10/12 01:53:49;;;;;;;12.93;4.97;;;;;;;;;;5033476;28;20490;-79
2021/10/12 01:56:18;;;;;;;9.03;4.50;;;;;;;;;;5033238;28;20972;-78
2021/10/12 01:58:50;;;;;;;9.67;4.07;;;;;;;;;;5035282;28;20457;-79
2021/10/12 02:01:19;;;;;;;8.90;5.20;;;;;;;;;;5024513;28;20462;-78
2021/10/12 02:03:46;;;;;;;6.63;4.60;;;;;;;;;;5025059;28;20492;-80
2021/10/12 02:06:13;;;;;;;11.60;5.43;;;;;;;;;;5026052;28;20458;-78
2021/10/12 02:08:41;;;;;;;8.20;5.10;;;;;;;;;;5031661;28;20951;-81
2021/10/12 02:11:08;;;;;;;8.20;5.10;;;;;;;;;;5012449;28;20458;-81
2021/10/12 02:13:36;;;;;;;7.93;5.03;;;;;;;;;;5033211;28;20476;-78
2021/10/12 02:16:04;;;;;;;8.53;5.40;;;;;;;;;;5033022;28;20461;-82
2021/10/12 02:18:31;;;;;;;9.50;5.90;;;;;;;;;;5021768;28;20469;-80
2021/10/12 02:20:58;;;;;;;8.53;5.90;;;;;;;;;;5026593;28;20458;-79
2021/10/12 02:23:27;;;;;;;7.80;5.97;;;;;;;;;;5031272;28;20472;-77
2021/10/12 02:25:54;;;;;;;9.23;6.20;;;;;;;;;;5023576;28;20536;-78
2021/10/12 02:28:21;;;;;;;7.90;6.33;;;;;;;;;;5033963;28;20958;-80
2021/10/12 02:30:51;;;;;;;11.17;6.30;;;;;;;;;;5037326;28;20440;-78
2021/10/12 02:33:18;;;;;;;12.93;6.60;;;;;;;;;;5039159;28;20839;-80
2021/10/12 02:35:45;;;;;;;12.67;7.00;;;;;;;;;;5034922;28;20469;-81
2021/10/12 02:38:12;;;;;;;8.53;6.93;;;;;;;;;;5028966;28;20454;-79
2021/10/12 02:40:39;;;;;;;10.67;6.70;;;;;;;;;;5031703;28;20469;-77
2021/10/12 02:43:07;;;;;;;9.20;7.13;;;;;;;;;;5034774;28;20465;-79
2021/10/12 02:45:34;;;;;;;9.73;8.20;;;;;;;;;;5033845;28;20465;-79
2021/10/12 02:48:02;;;;;;;11.37;8.67;;;;;;;;;;5038614;28;20465;-78
2021/10/12 02:50:29;;;;;;;12.70;7.30;;;;;;;;;;5034986;28;20438;-81
2021/10/12 02:52:57;;;;;;;11.67;7.23;;;;;;;;;;5032251;28;20484;-79
2021/10/12 02:55:24;;;;;;;9.80;7.40;;;;;;;;;;5034041;28;20453;-81
2021/10/12 02:57:51;;;;;;;11.90;8.07;;;;;;;;;;5026585;28;20461;-79
2021/10/12 03:00:18;;;;;;;8.13;7.00;;;;;;;;;;5033380;28;20458;-81
2021/10/12 03:02:45;;;;;;;9.40;6.50;;;;;;;;;;5022856;28;20963;-80
2021/10/12 03:05:14;;;;;;;11.13;7.80;;;;;;;;;;5031897;28;20951;-79
2021/10/12 03:07:41;;;;;;;12.83;8.17;;;;;;;;;;5037919;28;20453;-78
2021/10/12 03:10:09;;;;;;;7.57;6.60;;;;;;;;;;5039317;28;20455;-80
2021/10/12 03:12:36;;;;;;;9.90;7.97;;;;;;;;;;5032961;28;20488;-81
2021/10/12 03:15:03;;;;;;;9.00;7.17;;;;;;;;;;5033836;28;20646;-78
2021/10/12 03:17:30;;;;;;;12.20;6.90;;;;;;;;;;5031369;28;20458;-80
2021/10/12 03:19:57;;;;;;;8.90;6.33;;;;;;;;;;5034134;28;20438;-81
2021/10/12 03:22:26;;;;;;;9.87;6.30;;;;;;;;;;5022396;28;20486;-78
2021/10/12 03:24:54;;;;;;;7.93;6.10;;;;;;;;;;5032247;28;20449;-80
2021/10/12 03:27:21;;;;;;;8.77;7.00;;;;;;;;;;5040396;28;20427;-81
2021/10/12 03:29:48;;;;;;;7.40;6.40;;;;;;;;;;5011979;28;20458;-80
2021/10/12 03:32:16;;;;;;;8.37;7.13;;;;;;;;;;5021626;28;20474;-79
2021/10/12 03:34:43;;;;;;;8.07;6.87;;;;;;;;;;5030507;28;20488;-81
2021/10/12 03:37:10;;;;;;;10.77;7.33;;;;;;;;;;5031717;28;20859;-81
2021/10/12 03:39:38;;;;;;;9.53;8.13;;;;;;;;;;5017416;28;20809;-79
2021/10/12 03:42:06;;;;;;;9.50;7.17;;;;;;;;;;5028960;28;20469;-81
2021/10/12 03:44:33;;;;;;;11.10;7.50;;;;;;;;;;5035755;28;20445;-80
2021/10/12 03:47:00;;;;;;;9.80;7.90;;;;;;;;;;5036044;28;20446;-78
2021/10/12 03:49:27;;;;;;;13.00;8.90;;;;;;;;;;5027232;28;20482;-77
2021/10/12 03:51:54;;;;;;;10.40;7.50;;;;;;;;;;5022797;28;20488;-77
2021/10/12 03:54:21;;;;;;;8.80;6.77;;;;;;;;;;5033043;28;20477;-81
2021/10/12 03:56:50;;;;;;;12.13;7.47;;;;;;;;;;5033246;28;20446;-79
2021/10/12 03:59:17;;;;;;;8.63;6.70;;;;;;;;;;5025871;28;20458;-79
2021/10/12 04:01:45;;;;;;;13.80;8.27;;;;;;;;;;5033154;28;20438;-77
2021/10/12 04:04:12;;;;;;;11.73;7.70;;;;;;;;;;5033408;28;21050;-78
2021/10/12 04:06:39;;;;;;;9.17;7.23;;;;;;;;;;5027236;28;20454;-80
2021/10/12 04:09:06;;;;;;;12.40;7.57;;;;;;;;;;5032633;28;20458;-77
2021/10/12 04:11:33;;;;;;;11.80;8.10;;;;;;;;;;5031000;28;20484;-79
2021/10/12 04:14:02;;;;;;;12.43;7.97;;;;;;;;;;5031814;28;20525;-79
2021/10/12 04:16:30;;;;;;;13.53;8.33;;;;;;;;;;5013208;28;20777;-82
2021/10/12 04:18:57;;;;;;;13.60;8.87;;;;;;;;;;5025383;28;20457;-81
2021/10/12 04:21:24;;;;;;;14.70;8.97;;;;;;;;;;5031271;28;20454;-80
2021/10/12 04:23:52;;;;;;;11.57;8.10;;;;;;;;;;5016778;28;20485;-80
2021/10/12 04:26:19;;;;;;;11.20;8.33;;;;;;;;;;5028721;28;20812;-77
2021/10/12 04:28:46;;;;;;;13.23;9.10;;;;;;;;;;5039395;28;20942;-78
2021/10/12 04:31:15;;;;;;;14.67;9.13;;;;;;;;;;5053409;28;20945;-80
2021/10/12 04:33:42;;;;;;;15.03;8.90;;;;;;;;;;5034791;28;20494;-81
2021/10/12 04:36:09;;;;;;;10.97;7.87;;;;;;;;;;5032366;28;20438;-79
2021/10/12 04:38:36;;;;;;;11.43;8.27;;;;;;;;;;5027964;28;20791;-81
2021/10/12 04:41:04;;;;;;;19.03;9.50;;;;;;;;;;5038292;28;20422;-80
2021/10/12 04:43:31;;;;;;;15.13;9.93;;;;;;;;;;5032550;28;20840;-81
2021/10/12 04:45:58;;;;;;;16.60;9.40;;;;;;;;;;5020563;28;20461;-78
2021/10/12 04:48:26;;;;;;;14.20;8.50;;;;;;;;;;5025609;28;20461;-78
2021/10/12 04:50:55;;;;;;;14.87;8.70;;;;;;;;;;5012241;28;20442;-81
2021/10/12 04:53:22;;;;;;;10.57;7.30;;;;;;;;;;5014599;28;21982;-80
2021/10/12 04:55:49;;;;;;;18.77;9.17;;;;;;;;;;5028192;28;20832;-78
2021/10/12 04:58:17;;;;;;;12.53;8.60;;;;;;;;;;5016589;28;20438;-80
2021/10/12 05:00:44;;;;;;;10.60;7.60;;;;;;;;;;5032743;28;20796;-78
2021/10/12 05:03:11;;;;;;;10.50;7.40;;;;;;;;;;5037557;28;20471;-78
2021/10/12 05:05:39;;;;;;;10.70;7.90;;;;;;;;;;5028550;28;20466;-81
2021/10/12 05:08:06;;;;;;;13.20;8.43;;;;;;;;;;5024208;28;20441;-84
2021/10/12 05:10:34;;;;;;;14.10;7.20;;;;;;;;;;5031336;28;20876;-81
2021/10/12 05:13:01;;;;;;;12.00;7.50;;;;;;;;;;5026272;28;20888;-79
2021/10/12 05:15:30;;;;;;;11.80;9.30;;;;;;;;;;5035846;28;20489;-78
2021/10/12 05:17:57;;;;;;;13.13;7.60;;;;;;;;;;5022129;28;20447;-82
2021/10/12 05:20:25;;;;;;;12.03;8.03;;;;;;;;;;5031147;28;20454;-80
2021/10/12 05:22:53;;;;;;;12.30;8.00;;;;;;;;;;5003665;28;20458;-82
2021/10/12 05:25:20;;;;;;;15.33;7.37;;;;;;;;;;5031641;28;20456;-80
2021/10/12 05:27:48;;;;;;;10.00;6.77;;;;;;;;;;5034293;28;20484;-80
2021/10/12 05:30:15;;;;;;;11.03;7.57;;;;;;;;;;5026451;28;20704;-79
2021/10/12 05:32:42;;;;;;;14.33;6.63;;;;;;;;;;5023910;28;20483;-79
2021/10/12 05:35:10;;;;;;;10.37;6.87;;;;;;;;;;5028235;28;20485;-78
2021/10/12 05:37:37;;;;;;;10.53;6.90;;;;;;;;;;5031878;28;20462;-79
2021/10/12 05:40:10;;;;;;;12.83;6.77;;;;;;;;;;5040048;28;20437;-79
2021/10/12 05:42:37;;;;;;;12.83;7.27;;;;;;;;;;5031037;28;20623;-82
2021/10/12 05:45:17;;;;;;;13.30;7.23;;;;;;;;;;5018902;28;20548;-78
2021/10/12 05:47:59;;;;;;;8.60;6.80;;;;;;;;;;5029454;28;20453;-80
2021/10/12 05:50:30;;;;;;;9.13;6.37;;;;;;;;;;5022076;28;20516;-81
2021/10/12 05:53:07;;;;;;;7.93;5.90;;;;;;;;;;5028152;28;20565;-82
2021/10/12 05:55:49;;;;;;;10.90;6.30;;;;;;;;;;5036414;28;20493;-80
2021/10/12 05:58:26;;;;;;;10.17;7.07;;;;;;;;;;5002068;28;20474;-78
2021/10/12 06:00:53;;;;;;;8.60;6.23;;;;;;;;;;5017102;28;20446;-80
2021/10/12 06:03:21;;;;;;;12.90;5.80;;;;;;;;;;5027470;28;20482;-82
2021/10/12 06:05:48;;;;;;;8.50;5.97;;;;;;;;;;5018569;28;20511;-79
2021/10/12 06:08:15;;;;;;;10.83;6.07;;;;;;;;;;5038444;28;20464;-78
2021/10/12 06:10:44;;;;;;;8.00;5.93;;;;;;;;;;5038351;28;20828;-81
2021/10/12 06:13:11;;;;;;;9.37;5.83;;;;;;;;;;5027404;28;20497;-80
2021/10/12 06:15:40;;;;;;;10.67;5.93;;;;;;;;;;5021032;28;20581;-81
2021/10/12 06:18:07;;;;;;;11.60;6.23;;;;;;;;;;5034589;28;20453;-81
2021/10/12 06:20:34;;;;;;;9.03;5.33;;;;;;;;;;5029303;28;20939;-79
2021/10/12 06:23:02;;;;;;;10.10;5.00;;;;;;;;;;5032982;28;20469;-81
2021/10/12 06:25:29;;;;;;;14.03;6.63;;;;;;;;;;5038190;28;20450;-79
2021/10/12 06:27:57;;;;;;;7.80;5.07;;;;;;;;;;5031345;28;20462;-80
2021/10/12 06:30:24;;;;;;;7.83;5.33;;;;;;;;;;5024465;28;20450;-79
2021/10/12 06:32:51;;;;;;;11.90;6.07;;;;;;;;;;5022283;28;20517;-78
2021/10/12 06:35:19;;;;;;;8.47;5.63;;;;;;;;;;5033014;28;20487;-81
2021/10/12 06:37:46;;;;;;;9.63;5.03;;;;;;;;;;5018819;28;20461;-80
2021/10/12 06:40:14;;;;;;;10.70;5.20;;;;;;;;;;5030281;28;20456;-81
2021/10/12 06:42:41;;;;;;;8.47;5.43;;;;;;;;;;5032875;28;20473;-79
2021/10/12 06:45:11;;;;;;;9.17;5.70;;;;;;;;;;5028941;28;20438;-81
2021/10/12 06:47:38;;;;;;;9.07;5.00;;;;;;;;;;5024305;28;20783;-80
2021/10/12 06:50:06;;;;;;;7.97;5.30;;;;;;;;;;5026263;28;20496;-80
2021/10/12 06:52:33;;;;;;;8.37;5.40;;;;;;;;;;5034123;28;20477;-79
2021/10/12 06:55:00;;;;;;;13.70;6.33;;;;;;;;;;5037883;28;20497;-78
2021/10/12 06:57:27;;;;;;;8.63;5.10;;;;;;;;;;5031213;28;20449;-83
2021/10/12 06:59:54;;;;;;;8.20;5.33;;;;;;;;;;5030349;28;20469;-80
2021/10/12 07:02:23;;;;;;;6.97;5.60;;;;;;;;;;5022160;28;20454;-80
2021/10/12 07:04:50;;;;;;;11.60;5.00;;;;;;;;;;5030839;28;20464;-81
2021/10/12 07:07:17;;;;;;;6.23;4.80;;;;;;;;;;5024732;28;20455;-78
2021/10/12 07:09:44;;;;;;;7.40;5.40;;;;;;;;;;5028254;28;20441;-79
2021/10/12 07:12:11;;;;;;;9.03;6.30;;;;;;;;;;5025435;28;20784;-82
2021/10/12 07:14:39;;;;;;;8.23;5.87;;;;;;;;;;5022919;28;20761;-78
2021/10/12 07:17:06;;;;;;;14.70;6.30;;;;;;;;;;5037933;28;20488;-80
2021/10/12 07:19:35;;;;;;;10.00;5.87;;;;;;;;;;5036503;28;20449;-84
2021/10/12 07:22:02;;;;;;;8.80;5.33;;;;;;;;;;5022713;28;20711;-80
2021/10/12 07:24:29;;;;;;;10.47;5.47;;;;;;;;;;5024065;28;20976;-80
2021/10/12 07:26:56;;;;;;;7.43;4.80;;;;;;;;;;5027703;28;20439;-79
2021/10/12 07:29:23;;;;;;;11.20;5.10;;;;;;;;;;5023250;28;20458;-82
2021/10/12 07:31:50;;;;;;;10.53;5.63;;;;;;;;;;5028123;28;20799;-81
2021/10/12 07:34:17;;;;;;;8.97;5.30;;;;;;;;;;5024033;28;20719;-79
2021/10/12 07:36:46;;;;;;;8.00;5.03;;;;;;;;;;5025230;28;20473;-80
2021/10/12 07:39:13;;;;;;;6.33;4.60;;;;;;;;;;5039048;28;20434;-83
2021/10/12 07:41:40;;;;;;;9.17;4.90;;;;;;;;;;5025224;28;20462;-79
2021/10/12 07:44:08;;;;;;;6.37;4.73;;;;;;;;;;5023942;28;20477;-81
2021/10/12 07:46:35;;;;;;;7.90;5.07;;;;;;;;;;5018258;28;20449;-79
2021/10/12 07:49:02;;;;;;;7.50;5.30;;;;;;;;;;5025068;28;20447;-81
2021/10/12 07:51:30;;;;;;;7.80;4.60;;;;;;;;;;5018794;28;20450;-80
2021/10/12 07:53:59;;;;;;;5.90;3.80;;;;;;;;;;5032786;28;20470;-82
2021/10/12 07:56:36;;;;;;;7.20;3.90;;;;;;;;;;5035554;28;20482;-83
2021/10/12 07:59:04;;;;;;;6.77;4.20;;;;;;;;;;5019036;28;20461;-81
2021/10/12 08:01:32;;;;;;;8.97;3.70;;;;;;;;;;5018903;28;20855;-81
2021/10/12 08:04:00;;;;;;;7.67;3.77;;;;;;;;;;5025675;28;20475;-82
2021/10/12 08:06:27;;;;;;;4.93;3.67;;;;;;;;;;5019761;28;20442;-79
2021/10/12 08:08:54;;;;;;;8.07;4.07;;;;;;;;;;5016084;28;20545;-78
2021/10/12 08:11:25;;;;;;;6.97;3.70;;;;;;;;;;5037284;28;20441;-80
2021/10/12 08:13:55;;;;;;;8.20;4.30;;;;;;;;;;5026733;28;20909;-79
2021/10/12 08:16:29;;;;;;;10.50;4.80;;;;;;;;;;5019327;28;20838;-79
2021/10/12 08:18:56;;;;;;;5.70;4.10;;;;;;;;;;5025432;28;20461;-80
2021/10/12 08:21:24;;;;;;;14.20;6.20;;;;;;;;;;5014219;28;20439;-82
2021/10/12 08:23:52;;;;;;;10.37;5.37;;;;;;;;;;5025673;28;20523;-82
2021/10/12 08:26:20;;;;;;;14.80;4.87;;;;;;;;;;5025427;28;20438;-82
2021/10/12 08:28:48;;;;;;;9.97;5.00;;;;;;;;;;5018626;28;20967;-79
2021/10/12 08:31:16;;;;;;;7.03;4.70;;;;;;;;;;5031606;28;20450;-82
2021/10/12 08:33:44;;;;;;;6.43;4.97;;;;;;;;;;5037558;28;20462;-80
2021/10/12 08:36:11;;;;;;;9.53;4.80;;;;;;;;;;5008777;28;20478;-80
2021/10/12 08:38:39;;;;;;;7.30;4.43;;;;;;;;;;5027621;28;20462;-80
2021/10/12 08:41:06;;;;;;;9.57;5.53;;;;;;;;;;5014512;28;20538;-81
2021/10/12 08:43:35;;;;;;;10.17;5.43;;;;;;;;;;5007934;28;20509;-80
2021/10/12 08:46:05;;;;;;;6.63;5.10;;;;;;;;;;5028412;28;20457;-80
2021/10/12 08:48:33;;;;;;;9.10;5.13;;;;;;;;;;5017371;28;20522;-82
2021/10/12 08:51:01;;;;;;;8.80;4.57;;;;;;;;;;5017428;28;20455;-79
2021/10/12 08:53:29;;;;;;;11.50;4.93;;;;;;;;;;5014424;28;20459;-80
2021/10/12 08:55:56;;;;;;;9.30;4.90;;;;;;;;;;5031742;28;20986;-80
2021/10/12 08:58:25;;;;;;;10.80;5.53;;;;;;;;;;5033754;28;20434;-79
2021/10/12 09:01:04;;;;;;;6.23;4.67;;;;;;;;;;5017033;28;20447;-79
2021/10/12 09:03:44;;;;;;;10.80;6.13;;;;;;;;;;5029939;28;20483;-79
2021/10/12 09:06:11;;;;;;;12.40;5.57;;;;;;;;;;4997756;28;20438;-78
2021/10/12 09:08:39;;;;;;;15.20;5.30;;;;;;;;;;5022386;28;20465;-81
2021/10/12 09:11:07;;;;;;;10.47;6.33;;;;;;;;;;5016831;28;20940;-79
2021/10/12 09:13:44;;;;;;;6.67;5.53;;;;;;;;;;5031314;28;20475;-81
2021/10/12 09:16:14;;;;;;;8.40;5.20;;;;;;;;;;5000551;28;20543;-81
2021/10/12 09:18:49;;;;;;;5.70;5.10;;;;;;;;;;5014540;28;20525;-80
2021/10/12 09:21:16;;;;;;;8.60;6.43;;;;;;;;;;5005888;28;20525;-81
2021/10/12 09:23:44;;;;;;;8.53;6.00;;;;;;;;;;5030134;28;20472;-79
2021/10/12 09:26:18;;;;;;;9.67;6.27;;;;;;;;;;5034917;28;20488;-79
2021/10/12 09:28:46;;;;;;;6.20;5.60;;;;;;;;;;5021878;28;20544;-80
2021/10/12 09:31:14;;;;;;;10.00;5.77;;;;;;;;;;5017886;28;20439;-81
2021/10/12 09:33:47;;;;;;;6.90;5.60;;;;;;;;;;4994170;28;20807;-79
2021/10/12 09:36:27;;;;;;;8.50;5.70;;;;;;;;;;5024123;28;20563;-80
2021/10/12 09:38:54;;;;;;;8.37;6.63;;;;;;;;;;5019720;28;20470;-80
2021/10/12 09:41:24;;;;;;;8.17;5.87;;;;;;;;;;5023351;28;20458;-80
2021/10/12 09:43:51;;;;;;;6.90;5.40;;;;;;;;;;5036353;28;20453;-79
2021/10/12 09:46:28;;;;;;;7.67;5.67;;;;;;;;;;5029082;28;20686;-80
2021/10/12 09:48:56;;;;;;;7.00;5.60;;;;;;;;;;5017896;28;20548;-79
2021/10/12 09:51:23;;;;;;;6.77;6.00;;;;;;;;;;5017028;28;20462;-82
2021/10/12 09:53:50;;;;;;;7.87;5.63;;;;;;;;;;5011122;28;20471;-80
2021/10/12 09:56:18;;;;;;;8.73;6.60;;;;;;;;;;5017928;28;20478;-81
2021/10/12 09:58:45;;;;;;;11.00;5.67;;;;;;;;;;5024916;28;20462;-82
2021/10/12 10:01:13;;;;;;;8.87;6.90;;;;;;;;;;5019620;28;20827;-81
2021/10/12 10:03:41;;;;;;;7.20;5.93;;;;;;;;;;5016123;28;21074;-81
2021/10/12 10:06:11;;;;;;;11.33;7.40;;;;;;;;;;5029510;28;20442;-82
2021/10/12 10:08:39;;;;;;;9.37;7.30;;;;;;;;;;5023218;28;21266;-82
2021/10/12 10:11:06;;;;;;;7.43;6.37;;;;;;;;;;5026508;28;20462;-81
2021/10/12 10:13:34;;;;;;;8.00;6.53;;;;;;;;;;5035321;28;20515;-81
2021/10/12 10:16:02;;;;;;;10.53;7.90;;;;;;;;;;5003940;28;20727;-81
2021/10/12 10:18:29;;;;;;;7.67;6.40;;;;;;;;;;5028651;28;20458;-81
2021/10/12 10:20:58;;;;;;;8.00;6.20;;;;;;;;;;5029097;28;20445;-82
2021/10/12 10:23:40;;;;;;;7.83;6.63;;;;;;;;;;5030415;28;20918;-82
2021/10/12 10:26:23;;;;;;;6.50;5.50;;;;;;;;;;5007588;28;20540;-82
2021/10/12 10:28:51;;;;;;;7.53;6.73;;;;;;;;;;5027495;28;20446;-82
2021/10/12 10:31:22;;;;;;;10.03;6.13;;;;;;;;;;5024056;28;20446;-82
2021/10/12 10:33:49;;;;;;;7.57;6.80;;;;;;;;;;4999489;28;21052;-81
2021/10/12 10:36:27;;;;;;;7.90;6.63;;;;;;;;;;5035076;28;20497;-81
2021/10/12 10:38:55;;;;;;;9.80;8.00;;;;;;;;;;5040114;28;20540;-81
2021/10/12 10:41:23;;;;;;;9.10;7.90;;;;;;;;;;5026324;28;20831;-81
2021/10/12 10:43:54;;;;;;;8.97;7.03;;;;;;;;;;5031104;28;20454;-81
2021/10/12 10:46:36;;;;;;;13.73;8.27;;;;;;;;;;5029360;28;20430;-81
2021/10/12 10:49:04;;;;;;;14.43;9.23;;;;;;;;;;5004632;28;20828;-81
2021/10/12 10:51:46;;;;;;;9.27;8.33;;;;;;;;;;5036279;28;20499;-82
2021/10/12 10:54:28;;;;;;;9.97;8.97;;;;;;;;;;5036137;28;20465;-83
2021/10/12 10:57:10;;;;;;;9.23;7.77;;;;;;;;;;5006458;28;20986;-82
2021/10/12 10:59:37;;;;;;;13.50;8.43;;;;;;;;;;5016549;28;20462;-82
2021/10/12 11:02:24;;;;;;;10.70;8.57;;;;;;;;;;5033980;28;20832;-81
2021/10/12 11:04:52;;;;;;;11.07;9.70;;;;;;;;;;5015815;28;20442;-81
2021/10/12 11:07:20;;;;;;;10.03;9.00;;;;;;;;;;5032833;28;20802;-80
2021/10/12 11:09:48;;;;;;;10.17;8.60;;;;;;;;;;5024816;28;20462;-81
2021/10/12 11:12:18;;;;;;;8.87;8.03;;;;;;;;;;5025840;28;20465;-81
2021/10/12 11:14:45;;;;;;;9.43;8.00;;;;;;;;;;5039754;28;20465;-82
2021/10/12 11:17:13;;;;;;;9.90;7.63;;;;;;;;;;5033580;28;20481;-80
2021/10/12 11:19:53;;;;;;;12.00;8.10;;;;;;;;;;5030087;28;20460;-80
2021/10/12 11:22:21;;;;;;;7.63;6.93;;;;;;;;;;5026993;28;21025;-82
2021/10/12 11:24:49;;;;;;;7.40;6.60;;;;;;;;;;5026392;28;20988;-81
2021/10/12 11:27:16;;;;;;;8.47;7.67;;;;;;;;;;5024896;28;20465;-81
2021/10/12 11:29:44;;;;;;;8.80;5.30;;;;;;;;;;5033400;28;20456;-82
2021/10/12 11:32:11;;;;;;;7.53;6.33;;;;;;;;;;5035112;28;20441;-82
2021/10/12 11:34:39;;;;;;;8.00;7.17;;;;;;;;;;5031823;28;20964;-82
2021/10/12 11:37:07;;;;;;;6.30;5.73;;;;;;;;;;5015338;28;20485;-83
2021/10/12 11:39:36;;;;;;;7.73;6.00;;;;;;;;;;5030015;28;20528;-81
2021/10/12 11:42:04;;;;;;;9.67;6.50;;;;;;;;;;5028706;28;20486;-84
2021/10/12 11:44:31;;;;;;;10.73;6.67;;;;;;;;;;5029895;28;20804;-82
2021/10/12 11:47:02;;;;;;;8.13;6.57;;;;;;;;;;5036803;28;20558;-84
2021/10/12 11:49:29;;;;;;;9.87;7.17;;;;;;;;;;5032934;28;20932;-83
2021/10/12 11:54:35;;;;;;;5.97;5.37;;;;;;;;;;4964997;26;21122;-80
2021/10/12 11:57:03;;;;;;;7.50;6.70;;;;;;;;;;5041159;28;20859;-86
2021/10/12 11:59:35;;;;;;;8.17;7.20;;;;;;;;;;5032261;28;20462;-82
2021/10/12 12:02:07;;;;;;;7.70;6.57;;;;;;;;;;5041401;28;20461;-83
2021/10/12 12:04:35;;;;;;;8.43;7.20;;;;;;;;;;5052970;28;20511;-83
2021/10/12 12:07:05;;;;;;;7.33;6.63;;;;;;;;;;5049062;28;20445;-82
2021/10/12 12:09:33;;;;;;;13.30;7.07;;;;;;;;;;5049342;28;20445;-83
2021/10/12 12:12:02;;;;;;;7.13;6.33;;;;;;;;;;5032007;28;20453;-81
2021/10/12 12:14:30;;;;;;;8.30;7.30;;;;;;;;;;5026283;28;20462;-90
2021/10/12 12:17:13;;;;;;;8.27;7.00;;;;;;;;;;5040139;28;20826;-80
2021/10/12 12:19:42;;;;;;;6.53;5.93;;;;;;;;;;5022418;28;20458;-80
2021/10/12 12:22:12;;;;;;;9.43;6.90;;;;;;;;;;5053622;28;20448;-81
2021/10/12 12:24:52;;;;;;;8.37;6.07;;;;;;;;;;5049225;28;20441;-81
2021/10/12 12:27:21;;;;;;;8.23;6.73;;;;;;;;;;5049698;28;20950;-82
2021/10/12 12:29:58;;;;;;;8.27;6.53;;;;;;;;;;5048361;28;20833;-81
2021/10/12 12:32:25;;;;;;;6.43;5.83;;;;;;;;;;5035332;28;20480;-79
2021/10/12 12:34:58;;;;;;;7.13;6.43;;;;;;;;;;5044919;28;20446;-81
2021/10/12 12:37:26;;;;;;;7.27;6.20;;;;;;;;;;5049013;28;20580;-80
2021/10/12 12:39:54;;;;;;;9.73;7.00;;;;;;;;;;5039834;28;20512;-79
2021/10/12 12:42:36;;;;;;;10.30;6.83;;;;;;;;;;5034310;28;20477;-83
2021/10/12 12:45:09;;;;;;;7.93;7.13;;;;;;;;;;5026461;28;20441;-81
2021/10/12 12:47:36;;;;;;;8.60;6.30;;;;;;;;;;5018581;28;20439;-79
2021/10/12 12:50:12;;;;;;;7.20;6.50;;;;;;;;;;5042406;28;20461;-85
2021/10/12 12:52:39;;;;;;;10.37;6.30;;;;;;;;;;5055970;28;20810;-83
2021/10/12 12:55:06;;;;;;;6.43;5.93;;;;;;;;;;5052222;28;20487;-79
2021/10/12 12:57:33;;;;;;;8.90;6.40;;;;;;;;;;5048560;28;20512;-78
2021/10/12 13:00:02;;;;;;;6.53;5.83;;;;;;;;;;5048805;28;20458;-85
2021/10/12 13:02:31;;;;;;;7.03;6.03;;;;;;;;;;5040138;28;20460;-80
2021/10/12 13:04:58;;;;;;;7.87;6.00;;;;;;;;;;5030987;28;20463;-82
2021/10/12 13:07:25;;;;;;;6.97;6.00;;;;;;;;;;5056783;28;20514;-79
2021/10/12 13:09:53;;;;;;;8.60;5.50;;;;;;;;;;5047684;28;20461;-79
2021/10/12 13:12:21;;;;;;;7.63;6.20;;;;;;;;;;5054050;28;20470;-79
2021/10/12 13:14:48;;;;;;;7.50;6.90;;;;;;;;;;5045962;28;20575;-78
2021/10/12 13:17:19;;;;;;;6.80;6.20;;;;;;;;;;5039183;28;20478;-81
2021/10/12 13:19:47;;;;;;;6.70;6.10;;;;;;;;;;5038437;28;20547;-79
2021/10/12 13:22:15;;;;;;;6.33;5.57;;;;;;;;;;5045128;28;20465;-84
2021/10/12 13:24:42;;;;;;;8.80;6.33;;;;;;;;;;5052117;28;20450;-82
2021/10/12 13:27:11;;;;;;;6.50;5.90;;;;;;;;;;5051627;28;20445;-80
2021/10/12 13:29:38;;;;;;;6.90;6.30;;;;;;;;;;5041237;28;20809;-80
2021/10/12 13:32:05;;;;;;;5.43;4.93;;;;;;;;;;5034260;28;20946;-84
2021/10/12 13:34:33;;;;;;;7.20;5.83;;;;;;;;;;5043321;28;20951;-80
2021/10/12 13:37:01;;;;;;;6.77;5.50;;;;;;;;;;5048755;28;20480;-82
2021/10/12 13:39:29;;;;;;;5.57;5.07;;;;;;;;;;5051448;28;20448;-82
2021/10/12 13:41:56;;;;;;;5.70;4.60;;;;;;;;;;5051155;28;20781;-79
2021/10/12 13:44:23;;;;;;;4.60;4.20;;;;;;;;;;5044185;28;20534;-82
2021/10/12 13:46:51;;;;;;;6.27;5.30;;;;;;;;;;5054353;28;20436;-81
2021/10/12 13:49:18;;;;;;;5.50;4.80;;;;;;;;;;5054336;28;20448;-82
2021/10/12 13:52:07;;;;;;;5.90;4.87;;;;;;;;;;5047917;28;20467;-82
2021/10/12 13:54:37;;;;;;;5.37;4.87;;;;;;;;;;5022136;28;20483;-80
2021/10/12 13:57:04;;;;;;;4.93;4.43;;;;;;;;;;5037760;28;20479;-81
2021/10/12 13:59:32;;;;;;;8.10;5.07;;;;;;;;;;5032227;28;20455;-80
2021/10/12 14:01:59;;;;;;;6.30;4.23;;;;;;;;;;5042412;28;20459;-83
2021/10/12 14:04:27;;;;;;;5.30;4.20;;;;;;;;;;5049389;28;20554;-83
2021/10/12 14:06:55;;;;;;;5.80;4.77;;;;;;;;;;5048797;28;20462;-80
2021/10/12 14:09:22;;;;;;;4.80;3.70;;;;;;;;;;5053647;28;20495;-81
2021/10/12 14:11:54;;;;;;;7.77;4.70;;;;;;;;;;5049885;28;20471;-79
2021/10/12 14:14:21;;;;;;;4.30;3.90;;;;;;;;;;5054440;28;20488;-81
2021/10/12 14:16:49;;;;;;;7.73;5.40;;;;;;;;;;5043235;28;20476;-80
2021/10/12 14:19:16;;;;;;;5.17;4.67;;;;;;;;;;5034088;28;20824;-81
2021/10/12 14:21:43;;;;;;;4.47;4.03;;;;;;;;;;5043171;28;20458;-80
2021/10/12 14:24:10;;;;;;;4.10;3.77;;;;;;;;;;5053725;28;20472;-81
2021/10/12 14:29:40;;;;;;;6.10;4.63;;;;;;;;;;5025494;28;20449;-84
2021/10/12 14:32:09;;;;;;;4.80;4.13;;;;;;;;;;5040588;28;20771;-82
2021/10/12 14:34:37;;;;;;;4.83;4.07;;;;;;;;;;5042658;28;20459;-83
2021/10/12 14:37:06;;;;;;;6.70;5.20;;;;;;;;;;5053717;28;20491;-80
2021/10/12 14:39:34;;;;;;;7.10;4.00;;;;;;;;;;5052610;28;20797;-79
2021/10/12 14:42:02;;;;;;;2.53;2.17;;;;;;;;;;5041488;28;20450;-78
2021/10/12 14:44:30;;;;;;;4.00;2.67;;;;;;;;;;5055442;28;20503;-78
2021/10/12 14:47:02;;;;;;;2.20;1.87;;;;;;;;;;5044071;28;20452;-79
2021/10/12 14:49:30;;;;;;;2.73;1.73;;;;;;;;;;5037753;28;20447;-79
2021/10/12 14:51:57;;;;;;;2.27;1.93;;;;;;;;;;5044800;28;20547;-78